Time;durP1;ratioP1;P1;durP2;ratioP2;P2;SDS_P1;SDS_P2;PMS_P1;PMS_P2;Temp;Humidity;BMP_temperature;BMP_pressure;BME280_temperature;BME280_humidity;BME280_pressure;Samples;Min_cycle;Max_cycle;Signal;HPM_P1;HPM_P2
2022/04/29 00:02:15;;;;;;;8.63;6.63;;;;;;;13.78;69.80;99952.63;4950036;28;20030;-90
2022/04/29 00:04:42;;;;;;;8.88;6.53;;;;;;;13.84;69.70;99956.94;4966173;28;20409;-90
2022/04/29 00:07:08;;;;;;;7.95;6.57;;;;;;;13.75;69.88;99949.38;4965598;28;20042;-90
2022/04/29 00:09:34;;;;;;;9.93;6.63;;;;;;;13.72;70.09;99949.13;4965025;28;20404;-90
2022/04/29 00:12:02;;;;;;;8.13;6.93;;;;;;;13.73;69.91;99950.75;4965700;28;20035;-90
2022/04/29 00:14:29;;;;;;;13.20;7.30;;;;;;;13.73;69.90;99945.31;4966025;28;20030;-89
2022/04/29 00:16:55;;;;;;;12.48;6.47;;;;;;;13.77;69.56;99940.19;4998147;28;20030;-90
2022/04/29 00:19:21;;;;;;;9.95;7.38;;;;;;;13.78;69.64;99947.19;4980112;28;20034;-91
2022/04/29 00:21:47;;;;;;;10.15;7.07;;;;;;;13.81;69.98;99947.47;4965178;28;20173;-90
2022/04/29 00:24:13;;;;;;;11.02;7.82;;;;;;;13.72;70.39;99947.22;4981662;28;20041;-90
2022/04/29 00:26:40;;;;;;;9.90;6.70;;;;;;;13.80;69.74;99940.44;4999311;28;20030;-89
2022/04/29 00:29:06;;;;;;;9.18;7.25;;;;;;;13.90;69.51;99945.00;4965139;28;20117;-91
2022/04/29 00:31:33;;;;;;;9.95;7.00;;;;;;;13.86;69.56;99930.41;4982079;28;20034;-90
2022/04/29 00:33:58;;;;;;;18.08;8.00;;;;;;;13.78;69.84;99931.78;4950262;28;20022;-90
2022/04/29 00:36:25;;;;;;;11.93;7.20;;;;;;;13.84;69.72;99938.81;4965935;28;20037;-90
2022/04/29 00:38:51;;;;;;;9.02;7.60;;;;;;;13.82;69.80;99930.16;4964494;28;20049;-91
2022/04/29 00:41:23;;;;;;;8.25;7.28;;;;;;;13.75;69.89;99933.13;4961575;28;20486;-91
2022/04/29 00:44:09;;;;;;;10.57;7.90;;;;;;;13.82;69.80;99935.56;4962659;28;20045;-90
2022/04/29 00:46:40;;;;;;;10.43;7.35;;;;;;;13.75;69.84;99926.91;4978101;28;20046;-90
2022/04/29 00:49:12;;;;;;;11.03;8.00;;;;;;;13.75;69.60;99929.63;4962980;28;20023;-90
2022/04/29 00:51:39;;;;;;;8.85;7.53;;;;;;;13.77;69.24;99932.88;4979213;28;20027;-90
2022/04/29 00:54:07;;;;;;;9.70;7.40;;;;;;;13.79;69.03;99919.06;4978294;28;20030;-90
2022/04/29 00:56:36;;;;;;;8.68;7.10;;;;;;;13.80;69.64;99924.22;4945461;28;20033;-90
2022/04/29 00:59:15;;;;;;;10.80;6.97;;;;;;;13.78;70.16;99910.16;4946162;28;20026;-91
2022/04/29 01:01:42;;;;;;;7.40;6.50;;;;;;;13.73;70.29;99916.34;4978295;28;20027;-91
2022/04/29 01:04:07;;;;;;;9.05;7.20;;;;;;;13.64;70.39;99907.19;4945781;28;20034;-91
2022/04/29 01:06:34;;;;;;;10.32;7.15;;;;;;;13.67;69.91;99911.25;4961688;28;20023;-90
2022/04/29 01:09:00;;;;;;;8.52;6.93;;;;;;;13.71;69.69;99915.81;4977225;28;20023;-89
2022/04/29 01:11:26;;;;;;;10.20;7.25;;;;;;;13.65;69.98;99906.09;4977421;28;20100;-90
2022/04/29 01:13:53;;;;;;;11.50;6.97;;;;;;;13.67;70.67;99912.06;4945780;28;20118;-90
2022/04/29 01:16:19;;;;;;;7.97;6.68;;;;;;;13.64;70.19;99901.78;4977909;28;20118;-91
2022/04/29 01:18:52;;;;;;;8.73;6.78;;;;;;;13.50;70.66;99904.25;4961000;28;20497;-90
2022/04/29 01:21:18;;;;;;;11.88;8.05;;;;;;;13.63;70.36;99912.88;4977178;28;20522;-91
2022/04/29 01:23:43;;;;;;;10.45;7.50;;;;;;;13.58;70.13;99907.50;4962126;28;20061;-90
2022/04/29 01:26:14;;;;;;;10.10;7.50;;;;;;;13.57;70.56;99906.66;4944853;28;20102;-90
2022/04/29 01:29:06;;;;;;;10.45;6.72;;;;;;;13.61;70.62;99923.16;4947420;28;20097;-90
2022/04/29 01:31:33;;;;;;;8.88;6.72;;;;;;;13.59;70.59;99922.63;4938036;29;20599;-90
2022/04/29 01:33:59;;;;;;;9.77;7.28;;;;;;;13.57;70.52;99917.50;4938015;29;20045;-90
2022/04/29 01:36:24;;;;;;;12.48;7.50;;;;;;;13.52;70.59;99917.53;4922458;29;20051;-90
2022/04/29 01:38:50;;;;;;;12.00;7.47;;;;;;;13.59;69.87;99928.03;4938479;29;20024;-90
2022/04/29 01:41:16;;;;;;;9.63;6.80;;;;;;;13.56;69.93;99926.72;4937707;29;20084;-90
2022/04/29 01:43:42;;;;;;;7.80;6.72;;;;;;;13.57;70.41;99941.84;4937647;29;20038;-90
2022/04/29 01:46:07;;;;;;;10.55;6.97;;;;;;;13.45;70.75;99925.13;4937319;29;20126;-90
2022/04/29 01:48:33;;;;;;;8.35;6.00;;;;;;;13.49;70.80;99927.00;4938013;29;20028;-90
2022/04/29 01:50:59;;;;;;;8.90;6.30;;;;;;;13.61;71.13;99936.69;4921736;29;20039;-90
2022/04/29 01:53:25;;;;;;;10.23;6.32;;;;;;;13.44;71.00;99909.97;4937605;29;20429;-90
2022/04/29 01:55:50;;;;;;;8.48;6.53;;;;;;;13.47;70.86;99926.47;4920800;29;20042;-90
2022/04/29 01:58:17;;;;;;;8.98;6.68;;;;;;;13.46;71.29;99924.03;4921782;29;20426;-90
2022/04/29 02:00:44;;;;;;;7.95;6.57;;;;;;;13.43;71.25;99922.69;4937588;29;20042;-90
2022/04/29 02:03:09;;;;;;;10.30;7.50;;;;;;;13.44;70.91;99923.47;4980823;28;20031;-90
2022/04/29 02:05:36;;;;;;;10.40;7.05;;;;;;;13.40;71.29;99925.91;4943493;28;20027;-90
2022/04/29 02:08:02;;;;;;;10.68;7.18;;;;;;;13.36;71.19;99919.44;4959781;28;20038;-90
2022/04/29 02:10:28;;;;;;;8.07;6.70;;;;;;;13.30;71.51;99915.94;4960768;28;20026;-90
2022/04/29 02:12:54;;;;;;;9.40;6.80;;;;;;;13.32;71.64;99924.59;4960844;28;20405;-90
2022/04/29 02:15:22;;;;;;;8.57;7.22;;;;;;;13.28;71.65;99918.09;4959514;28;20031;-90
2022/04/29 02:17:48;;;;;;;9.63;6.93;;;;;;;13.33;71.27;99911.88;4960502;28;20029;-90
2022/04/29 02:20:16;;;;;;;10.95;7.57;;;;;;;13.43;71.09;99922.69;4959932;28;20038;-90
2022/04/29 02:22:42;;;;;;;10.13;6.50;;;;;;;13.39;71.04;99913.50;4960933;28;20045;-91
2022/04/29 02:25:09;;;;;;;10.40;7.50;;;;;;;13.36;71.34;99907.81;4943774;28;20034;-89
2022/04/29 02:27:36;;;;;;;9.30;7.43;;;;;;;13.30;71.79;99921.34;4959064;28;20030;-89
2022/04/29 02:30:02;;;;;;;9.65;7.43;;;;;;;13.39;71.68;99923.50;4929312;28;20485;-90
2022/04/29 02:32:28;;;;;;;9.32;7.47;;;;;;;13.37;71.51;99918.38;4945256;28;20054;-89
2022/04/29 02:34:54;;;;;;;11.88;8.18;;;;;;;13.38;71.47;99921.88;4944638;28;20077;-90
2022/04/29 02:37:20;;;;;;;11.35;7.45;;;;;;;13.49;71.04;99928.91;4943450;28;20033;-89
2022/04/29 02:39:46;;;;;;;13.57;8.07;;;;;;;13.42;71.36;99920.25;4959162;28;20474;-89
2022/04/29 02:42:12;;;;;;;11.65;8.48;;;;;;;13.32;71.50;99923.75;4977544;28;20150;-90
2022/04/29 02:44:39;;;;;;;10.90;8.20;;;;;;;13.30;72.15;99943.00;4960246;28;20034;-89
2022/04/29 02:47:07;;;;;;;12.38;8.50;;;;;;;13.20;72.26;99942.13;4958551;28;20125;-90
2022/04/29 02:49:38;;;;;;;9.68;7.07;;;;;;;13.30;72.03;99943.00;4959446;28;20034;-90
2022/04/29 02:52:06;;;;;;;8.52;7.35;;;;;;;13.27;71.91;99935.38;4961062;28;20045;-90
2022/04/29 02:54:31;;;;;;;12.75;8.10;;;;;;;13.23;72.05;99936.19;4944547;28;20078;-89
2022/04/29 02:56:57;;;;;;;11.27;7.55;;;;;;;13.27;71.43;99942.69;4927784;28;20031;-89
2022/04/29 02:59:23;;;;;;;11.05;7.68;;;;;;;13.35;71.87;99953.00;4959056;28;20115;-90
2022/04/29 03:01:49;;;;;;;10.23;7.55;;;;;;;13.43;71.48;99952.44;4944369;28;20133;-90
2022/04/29 03:04:15;;;;;;;11.13;7.35;;;;;;;13.34;71.48;99944.06;4960079;28;20038;-90
2022/04/29 03:06:41;;;;;;;10.63;7.38;;;;;;;13.33;72.18;99957.88;4927971;28;20046;-90
2022/04/29 03:09:07;;;;;;;11.27;7.78;;;;;;;13.27;71.82;99946.19;4961628;28;20023;-91
2022/04/29 03:11:36;;;;;;;12.57;7.72;;;;;;;13.21;72.21;99941.88;4964021;28;20050;-90
2022/04/29 03:14:01;;;;;;;12.52;7.75;;;;;;;13.28;72.02;99947.00;4931960;28;20026;-90
2022/04/29 03:16:28;;;;;;;11.98;7.57;;;;;;;13.29;71.96;99946.75;4947724;28;20034;-90
2022/04/29 03:18:54;;;;;;;12.07;8.00;;;;;;;13.23;72.01;99937.00;4963461;28;20038;-91
2022/04/29 03:21:22;;;;;;;13.05;8.10;;;;;;;13.26;71.74;99930.22;4964932;28;20026;-92
2022/04/29 03:23:48;;;;;;;10.52;8.48;;;;;;;13.20;71.73;99920.50;4949279;28;20031;-91
2022/04/29 03:26:14;;;;;;;15.15;8.80;;;;;;;13.30;71.38;99936.75;4963756;28;20039;-92
2022/04/29 03:28:40;;;;;;;12.90;8.27;;;;;;;13.22;71.95;99931.88;4946942;28;20030;-91
2022/04/29 03:31:07;;;;;;;10.48;8.02;;;;;;;13.17;72.23;99940.78;4932934;28;20485;-91
2022/04/29 03:33:34;;;;;;;9.70;8.23;;;;;;;13.17;72.21;99934.59;4964345;28;20026;-91
2022/04/29 03:36:01;;;;;;;10.63;8.10;;;;;;;13.18;72.18;99926.22;4964560;28;20094;-92
2022/04/29 03:38:27;;;;;;;13.38;8.02;;;;;;;13.13;71.98;99929.69;4963204;28;20146;-90
2022/04/29 03:40:56;;;;;;;15.18;8.77;;;;;;;13.14;72.26;99938.66;4979291;28;20051;-92
2022/04/29 03:43:23;;;;;;;18.05;8.95;;;;;;;13.13;72.76;99948.63;4993968;28;20048;-92
2022/04/29 03:45:49;;;;;;;12.00;8.25;;;;;;;13.01;72.93;99933.78;5002549;28;20037;-91
2022/04/29 03:48:15;;;;;;;11.20;7.70;;;;;;;13.07;72.97;99944.34;4971588;28;20447;-92
2022/04/29 03:50:41;;;;;;;13.15;8.57;;;;;;;13.18;72.80;99947.00;4969224;28;20038;-92
2022/04/29 03:53:07;;;;;;;11.38;8.30;;;;;;;13.18;72.84;99952.41;4952712;28;20456;-93
2022/04/29 03:55:34;;;;;;;11.10;8.52;;;;;;;13.24;72.74;99956.75;4968464;28;20121;-90
2022/04/29 03:58:04;;;;;;;13.55;8.68;;;;;;;13.30;72.75;99963.78;4967858;28;20025;-90
2022/04/29 04:00:33;;;;;;;14.82;8.45;;;;;;;13.20;72.99;99958.38;4951311;28;20093;-90
2022/04/29 04:03:00;;;;;;;9.90;8.35;;;;;;;13.16;72.41;99947.31;4950573;28;20113;-90
2022/04/29 04:05:26;;;;;;;12.80;7.95;;;;;;;13.27;73.01;99970.53;4984054;28;20034;-90
2022/04/29 04:07:52;;;;;;;12.80;8.82;;;;;;;13.13;72.93;99959.44;4999873;28;20034;-90
2022/04/29 04:10:26;;;;;;;14.20;9.23;;;;;;;13.15;73.11;99961.88;4983297;28;20018;-91
2022/04/29 04:12:51;;;;;;;20.23;8.60;;;;;;;13.00;73.54;99961.91;4966815;28;20022;-90
2022/04/29 04:15:21;;;;;;;15.55;8.43;;;;;;;13.03;73.50;99956.78;4984252;28;20045;-89
2022/04/29 04:17:47;;;;;;;14.48;9.00;;;;;;;13.11;73.35;99966.22;4984615;28;20061;-94
2022/04/29 04:20:19;;;;;;;18.02;9.75;;;;;;;13.17;73.35;99967.03;5001550;28;20034;-94
2022/04/29 04:22:55;;;;;;;49.78;14.07;;;;;;;13.14;73.46;99977.31;4972577;28;20030;-93
2022/04/29 04:25:22;;;;;;;117.63;24.65;;;;;;;13.10;73.33;99953.78;5001455;28;20046;-93
2022/04/29 04:27:49;;;;;;;24.10;10.27;;;;;;;13.20;73.19;99956.50;4985075;28;20489;-94
2022/04/29 04:30:16;;;;;;;17.50;9.07;;;;;;;13.18;73.28;99963.22;4971288;28;20019;-93
2022/04/29 04:32:43;;;;;;;13.77;8.45;;;;;;;13.14;73.10;99950.25;4972079;28;20048;-94
2022/04/29 04:35:10;;;;;;;24.20;11.73;;;;;;;13.37;72.45;99968.94;4989847;28;20006;-92
2022/04/29 04:37:41;;;;;;;27.52;12.77;;;;;;;13.42;72.71;99969.75;4988395;28;20027;-94
2022/04/29 04:40:15;;;;;;;30.73;12.02;;;;;;;13.49;72.30;99973.00;4971183;28;20058;-95
2022/04/29 04:42:44;;;;;;;176.00;36.15;;;;;;;13.51;72.45;99975.44;4969402;28;20022;-94
2022/04/29 04:45:17;;;;;;;47.28;14.63;;;;;;;13.45;72.40;99969.22;4973934;28;20038;-93
2022/04/29 04:47:44;;;;;;;137.80;28.40;;;;;;;13.52;72.02;99966.22;4989613;28;20030;-90
2022/04/29 04:50:13;;;;;;;78.40;23.10;;;;;;;13.69;72.20;99984.84;4954646;28;20057;-94
2022/04/29 04:52:45;;;;;;;68.90;38.63;;;;;;;13.66;72.15;99988.91;4987475;28;20109;-93
2022/04/29 04:55:14;;;;;;;24.75;12.85;;;;;;;13.62;71.97;99976.22;4972121;28;20057;-93
2022/04/29 04:57:41;;;;;;;28.25;11.13;;;;;;;13.62;72.12;99987.84;4988866;28;20033;-90
2022/04/29 05:00:07;;;;;;;19.48;10.77;;;;;;;13.60;71.40;99986.50;5002778;28;20086;-89
2022/04/29 05:02:33;;;;;;;23.67;10.60;;;;;;;13.61;71.28;99982.69;4969088;28;20065;-91
2022/04/29 05:04:59;;;;;;;21.20;9.95;;;;;;;13.53;72.05;99986.78;4984840;28;20033;-91
2022/04/29 05:07:24;;;;;;;20.05;10.63;;;;;;;13.66;71.92;99997.03;4984667;28;20032;-90
2022/04/29 05:09:50;;;;;;;20.10;11.90;;;;;;;13.67;72.00;100003.25;4965155;28;20116;-89
2022/04/29 05:12:15;;;;;;;30.63;10.43;;;;;;;13.79;71.32;99989.44;5002332;28;20081;-88
2022/04/29 05:14:41;;;;;;;24.98;12.15;;;;;;;13.65;69.36;99978.38;5011859;28;20030;-87
2022/04/29 05:17:06;;;;;;;19.40;10.70;;;;;;;13.83;69.27;99985.09;4997680;28;20022;-87
2022/04/29 05:19:33;;;;;;;37.97;16.33;;;;;;;13.86;67.90;99963.72;4992102;28;20030;-94
2022/04/29 05:21:58;;;;;;;24.13;11.45;;;;;;;13.90;67.66;99967.50;4974488;28;20080;-94
2022/04/29 05:24:25;;;;;;;18.50;10.30;;;;;;;14.10;66.25;99984.75;4970383;28;20027;-92
2022/04/29 05:26:50;;;;;;;21.70;10.35;;;;;;;14.29;64.99;99996.56;4966877;28;20018;-88
2022/04/29 05:29:16;;;;;;;22.00;10.43;;;;;;;14.23;63.61;99986.03;5002177;28;20086;-87
2022/04/29 05:31:42;;;;;;;15.80;11.05;;;;;;;14.28;62.01;99991.44;4967609;28;20026;-87
2022/04/29 05:34:09;;;;;;;32.60;11.27;;;;;;;14.32;61.74;99982.47;5000486;28;20030;-92
2022/04/29 05:36:35;;;;;;;30.63;13.55;;;;;;;14.60;61.06;99993.75;4952922;28;20026;-87
2022/04/29 05:44:29;;;;;;;14.27;9.07;;;;;;;14.72;60.11;99985.28;5017093;28;20061;-89
2022/04/29 05:46:54;;;;;;;15.98;9.85;;;;;;;14.68;61.07;99982.31;4999547;28;20030;-89
2022/04/29 05:49:22;;;;;;;22.70;10.23;;;;;;;14.73;60.05;99981.47;4990726;28;20026;-95
2022/04/29 05:51:48;;;;;;;13.32;10.63;;;;;;;14.62;59.90;99969.06;4973431;28;20037;-95
2022/04/29 05:54:14;;;;;;;20.58;11.75;;;;;;;14.69;60.07;99969.56;4970856;28;20408;-94
2022/04/29 05:56:39;;;;;;;11.35;9.20;;;;;;;14.82;58.31;99966.22;4973530;28;20401;-90
2022/04/29 05:59:05;;;;;;;10.43;8.25;;;;;;;14.91;56.92;99961.81;5006889;28;20038;-90
2022/04/29 06:01:30;;;;;;;10.88;7.78;;;;;;;14.92;56.58;99976.16;5007407;28;20027;-96
2022/04/29 06:03:56;;;;;;;10.18;8.35;;;;;;;15.15;56.68;100002.59;4992975;28;20412;-93
2022/04/29 06:06:22;;;;;;;13.00;9.25;;;;;;;15.00;56.94;99975.56;4990472;28;20158;-95
2022/04/29 06:08:47;;;;;;;14.50;9.77;;;;;;;15.11;57.52;99990.69;4968032;28;20037;-91
2022/04/29 06:11:24;;;;;;;10.13;8.00;;;;;;;15.13;56.34;99980.38;4985235;28;20035;-91
2022/04/29 06:13:50;;;;;;;12.60;7.18;;;;;;;15.13;55.88;99966.81;4979656;28;20038;-90
2022/04/29 06:16:17;;;;;;;11.68;8.57;;;;;;;15.63;55.89;100004.63;5009646;28;20041;-94
2022/04/29 06:18:46;;;;;;;10.07;8.13;;;;;;;15.70;55.27;99975.22;4956590;28;20038;-93
2022/04/29 06:21:13;;;;;;;28.13;10.65;;;;;;;15.94;54.43;99971.75;5006121;28;20037;-95
2022/04/29 06:23:40;;;;;;;14.98;8.80;;;;;;;16.12;54.29;99978.31;4975821;28;20129;-94
2022/04/29 06:26:17;;;;;;;20.95;9.68;;;;;;;16.28;53.22;99982.47;4992642;28;20037;-95
2022/04/29 06:28:42;;;;;;;13.15;8.00;;;;;;;16.24;53.12;99981.41;5006793;28;20030;-90
2022/04/29 06:31:08;;;;;;;10.25;7.45;;;;;;;16.45;53.04;99994.75;4952155;28;20054;-90
2022/04/29 06:33:34;;;;;;;12.25;7.00;;;;;;;16.27;52.44;99966.44;4982651;28;20030;-91
2022/04/29 06:36:00;;;;;;;10.48;7.35;;;;;;;16.56;52.14;99982.66;4964484;28;20105;-92
2022/04/29 06:38:28;;;;;;;26.02;8.65;;;;;;;16.76;52.06;99990.50;5015370;28;20034;-88
2022/04/29 06:40:55;;;;;;;28.63;9.95;;;;;;;16.73;52.46;99980.22;4999282;28;20125;-87
2022/04/29 06:43:21;;;;;;;18.00;9.43;;;;;;;16.97;51.97;100006.53;5001863;28;20026;-86
2022/04/29 06:45:47;;;;;;;12.13;7.47;;;;;;;16.77;52.19;99994.03;5001092;28;20102;-86
2022/04/29 06:48:12;;;;;;;9.07;6.85;;;;;;;16.71;51.84;100015.06;5018212;28;20041;-87
2022/04/29 06:50:38;;;;;;;8.80;6.93;;;;;;;16.85;51.13;100006.19;5019349;28;20033;-88
2022/04/29 06:53:04;;;;;;;6.60;5.63;;;;;;;16.72;49.69;99984.03;5022281;28;20105;-89
2022/04/29 06:55:30;;;;;;;8.68;6.38;;;;;;;16.71;50.52;99990.59;4996671;28;20122;-89
2022/04/29 06:57:55;;;;;;;7.47;5.93;;;;;;;16.82;50.06;99994.00;5017882;28;20072;-89
2022/04/29 07:00:21;;;;;;;7.80;6.50;;;;;;;16.91;50.01;100010.44;5019726;28;20022;-92
2022/04/29 07:02:47;;;;;;;7.47;6.07;;;;;;;16.68;49.61;99999.31;5002129;28;20033;-88
2022/04/29 07:05:24;;;;;;;7.65;6.50;;;;;;;16.57;50.82;99982.34;5001011;28;20033;-89
2022/04/29 07:07:50;;;;;;;12.00;7.47;;;;;;;16.65;51.07;99996.41;4993374;28;20030;-89
2022/04/29 07:10:16;;;;;;;6.93;6.18;;;;;;;16.80;50.26;100015.19;5002266;28;20404;-90
2022/04/29 07:12:42;;;;;;;7.43;6.57;;;;;;;16.86;50.55;100003.19;5002204;28;20029;-89
2022/04/29 07:15:09;;;;;;;14.75;7.18;;;;;;;16.77;52.27;100008.44;4987379;28;20041;-89
2022/04/29 07:17:35;;;;;;;16.00;8.45;;;;;;;16.98;51.30;100026.41;5022151;28;20399;-87
2022/04/29 07:20:00;;;;;;;14.55;6.75;;;;;;;16.98;49.82;99997.28;4986063;28;20030;-89
2022/04/29 07:22:26;;;;;;;9.85;6.10;;;;;;;17.27;48.90;100016.16;5040121;28;20041;-89
2022/04/29 07:24:51;;;;;;;9.38;6.63;;;;;;;17.32;49.45;100032.38;5006389;28;20026;-89
2022/04/29 07:27:18;;;;;;;7.53;6.00;;;;;;;17.30;48.44;100020.19;4994785;28;20037;-88
2022/04/29 07:29:44;;;;;;;7.75;5.95;;;;;;;17.24;49.73;100029.53;5021708;28;20026;-94
2022/04/29 07:43:24;;;;;;;11.98;8.60;;;;;;;17.43;49.50;100014.00;5006658;28;20069;-94
2022/04/29 07:45:52;;;;;;;8.40;7.00;;;;;;;17.47;49.16;100019.63;5009370;28;20033;-94
2022/04/29 07:48:23;;;;;;;7.75;6.43;;;;;;;17.33;49.61;100006.00;5008981;28;20078;-94
2022/04/29 07:50:54;;;;;;;7.80;6.65;;;;;;;17.41;50.00;100010.75;5023126;28;20037;-95
2022/04/29 07:53:28;;;;;;;8.10;6.85;;;;;;;17.48;50.02;100022.06;5007878;28;20049;-95
2022/04/29 07:55:54;;;;;;;8.45;7.10;;;;;;;17.31;50.46;100014.44;5024043;28;20121;-95
2022/04/29 07:58:34;;;;;;;8.90;6.63;;;;;;;17.46;50.35;100035.16;5011266;28;20211;-95
2022/04/29 08:01:25;;;;;;;11.82;7.43;;;;;;;17.43;50.39;100016.72;5014274;28;20112;-95
2022/04/29 08:04:01;;;;;;;9.80;6.60;;;;;;;17.29;50.60;100013.13;4985362;28;20048;-95
2022/04/29 08:06:40;;;;;;;9.70;6.75;;;;;;;17.22;51.33;100008.06;5027182;28;20041;-93
2022/04/29 08:09:09;;;;;;;10.43;6.70;;;;;;;17.01;51.49;100007.56;4995970;28;20010;-90
2022/04/29 08:11:37;;;;;;;9.60;7.40;;;;;;;17.26;51.17;100030.06;5022720;28;20025;-93
2022/04/29 08:14:06;;;;;;;8.30;6.13;;;;;;;17.33;50.46;99998.63;5021386;28;20030;-90
2022/04/29 08:16:39;;;;;;;13.07;9.23;;;;;;;17.53;50.06;100024.69;4984182;28;20121;-92
2022/04/29 08:19:23;;;;;;;6.10;5.50;;;;;;;17.34;49.40;99989.34;5013423;28;20034;-94
2022/04/29 08:21:49;;;;;;;6.90;5.50;;;;;;;17.49;49.51;100004.63;5023923;28;20060;-94
2022/04/29 08:24:15;;;;;;;9.43;6.40;;;;;;;17.51;49.57;99994.22;5010048;28;20041;-93
2022/04/29 08:26:41;;;;;;;7.05;6.35;;;;;;;17.59;50.13;100006.34;5007993;28;20022;-94
2022/04/29 08:29:10;;;;;;;9.95;6.10;;;;;;;17.41;50.54;99991.69;5007118;28;20022;-94
2022/04/29 08:31:36;;;;;;;14.18;11.52;;;;;;;17.53;51.53;100024.69;5008293;28;20514;-94
2022/04/29 08:34:07;;;;;;;10.68;8.60;;;;;;;17.52;51.84;100030.44;4985122;28;20046;-95
2022/04/29 08:36:33;;;;;;;10.00;8.60;;;;;;;17.44;52.03;100003.91;4990268;28;20047;-93
2022/04/29 08:39:01;;;;;;;18.58;11.63;;;;;;;17.35;52.83;99985.53;4995024;28;20034;-94
2022/04/29 08:41:30;;;;;;;16.85;10.73;;;;;;;17.65;51.98;100002.44;5025413;28;20034;-91
2022/04/29 08:43:57;;;;;;;10.77;9.57;;;;;;;17.66;51.76;100016.84;4991669;28;20022;-91
2022/04/29 08:46:24;;;;;;;12.25;10.23;;;;;;;17.66;51.62;100006.78;5006155;28;20006;-93
2022/04/29 08:48:51;;;;;;;11.85;10.55;;;;;;;17.84;51.56;100012.47;4985907;28;20022;-90
2022/04/29 08:51:20;;;;;;;11.15;9.77;;;;;;;17.65;50.89;99982.56;5006320;28;20023;-92
2022/04/29 08:53:47;;;;;;;11.23;9.38;;;;;;;17.68;51.15;99996.41;5022422;28;20109;-92
2022/04/29 08:59:04;;;;;;;14.25;10.93;;;;;;;17.71;51.64;99975.91;5002284;28;20041;-96
2022/04/29 09:01:30;;;;;;;11.50;10.30;;;;;;;17.74;51.31;99975.28;4964771;29;20134;-89
2022/04/29 09:03:55;;;;;;;11.48;9.18;;;;;;;17.80;50.52;99979.53;4944510;29;20073;-88
2022/04/29 09:06:22;;;;;;;13.02;9.55;;;;;;;17.92;50.72;99996.22;4942748;29;20049;-91
2022/04/29 09:08:49;;;;;;;10.77;8.75;;;;;;;18.03;50.02;100004.19;4965782;29;20114;-92
2022/04/29 09:11:27;;;;;;;10.85;9.30;;;;;;;18.15;49.80;99983.50;4980909;28;20055;-94
2022/04/29 09:13:53;;;;;;;14.00;9.60;;;;;;;18.25;49.87;100006.22;4982499;28;20046;-91
2022/04/29 09:16:26;;;;;;;11.65;9.27;;;;;;;18.08;49.71;99988.56;4964459;29;20027;-95
2022/04/29 09:18:56;;;;;;;9.80;8.38;;;;;;;18.30;49.01;99998.75;4951599;29;20130;-93
2022/04/29 09:25:03;;;;;;;12.27;9.10;;;;;;;17.94;50.16;99976.88;4969420;29;20053;-94
2022/04/29 09:27:32;;;;;;;11.25;9.73;;;;;;;17.92;50.53;99996.22;4942176;29;20130;-89
2022/04/29 09:30:01;;;;;;;10.63;8.77;;;;;;;17.80;49.94;99982.25;4955901;29;20024;-89
2022/04/29 09:32:47;;;;;;;11.00;9.65;;;;;;;17.72;50.53;99978.34;4972259;28;20046;-87
2022/04/29 09:35:42;;;;;;;229.93;21.55;;;;;;;17.80;50.97;99987.72;4997163;28;20148;-87
2022/04/29 09:41:00;;;;;;;10.75;9.02;;;;;;;18.32;48.61;99987.53;4994924;28;20467;-91
2022/04/29 09:43:44;;;;;;;28.52;13.82;;;;;;;18.49;49.32;99990.44;5003867;28;20030;-93
2022/04/29 09:46:23;;;;;;;11.07;8.60;;;;;;;18.61;47.70;99973.53;5001585;28;20039;-90
2022/04/29 09:49:09;;;;;;;9.75;8.70;;;;;;;18.78;47.22;99978.34;4967425;28;20046;-87
2022/04/29 09:51:51;;;;;;;27.65;19.60;;;;;;;18.74;47.80;99980.88;4963162;28;20051;-87
2022/04/29 09:54:26;;;;;;;10.88;8.60;;;;;;;18.33;47.74;99984.50;4957160;29;20118;-89
2022/04/29 09:57:15;;;;;;;10.38;9.00;;;;;;;18.08;49.14;99964.03;4959989;28;20070;-90
2022/04/29 09:59:51;;;;;;;12.73;10.00;;;;;;;17.84;49.41;99958.78;4977478;28;20757;-88
2022/04/29 10:02:26;;;;;;;12.30;9.98;;;;;;;17.73;49.85;99971.78;4958455;28;20102;-89
2022/04/29 10:04:52;;;;;;;9.75;8.55;;;;;;;17.71;49.81;99967.75;4950347;28;20521;-91
2022/04/29 10:07:21;;;;;;;11.75;9.30;;;;;;;17.64;50.17;99976.31;4955625;29;20043;-91
2022/04/29 10:09:54;;;;;;;9.73;8.38;;;;;;;17.74;50.10;99983.47;4989006;28;20035;-91
2022/04/29 10:12:23;;;;;;;8.77;7.88;;;;;;;17.51;50.37;99969.72;4994861;28;20042;-90
2022/04/29 10:14:53;;;;;;;11.68;8.73;;;;;;;17.25;50.92;99961.22;4998479;28;20019;-90
2022/04/29 10:22:50;;;;;;;15.60;12.07;;;;;;;17.08;51.83;99971.81;4998418;28;20139;-89
2022/04/29 10:25:20;;;;;;;9.70;8.55;;;;;;;17.11;51.63;99987.56;5001031;28;20080;-90
2022/04/29 10:27:46;;;;;;;10.27;9.00;;;;;;;17.05;51.65;99986.84;4994298;28;20038;-89
2022/04/29 10:30:12;;;;;;;12.32;8.82;;;;;;;16.89;51.45;99969.13;5011048;28;20080;-91
2022/04/29 10:33:08;;;;;;;10.05;8.38;;;;;;;16.89;52.32;99994.44;4997559;28;20040;-92
2022/04/29 10:35:43;;;;;;;12.18;8.38;;;;;;;16.94;52.22;99994.34;5029178;28;20029;-90
2022/04/29 10:38:18;;;;;;;12.73;10.13;;;;;;;16.76;52.11;99965.22;5017287;28;20044;-88
2022/04/29 10:40:48;;;;;;;10.43;9.38;;;;;;;16.92;52.23;99984.88;5005992;28;20551;-87
2022/04/29 10:43:14;;;;;;;10.70;9.60;;;;;;;16.90;52.22;99974.28;4970046;28;20420;-94
2022/04/29 10:46:14;;;;;;;11.95;8.75;;;;;;;17.03;52.20;99993.69;4954603;28;20026;-94
2022/04/29 10:48:43;;;;;;;13.00;9.40;;;;;;;16.96;52.44;99983.19;4991402;28;20049;-92
2022/04/29 10:51:13;;;;;;;13.98;10.35;;;;;;;17.18;51.42;99998.88;4986583;28;20120;-90
2022/04/29 10:53:40;;;;;;;13.57;9.27;;;;;;;17.13;52.05;99997.03;5002668;28;20065;-91
2022/04/29 10:56:31;;;;;;;14.95;8.95;;;;;;;17.17;51.93;100000.78;4980855;28;20113;-92
2022/04/29 10:59:14;;;;;;;12.35;9.60;;;;;;;17.05;51.71;99975.16;4995249;28;20018;-93
2022/04/29 11:02:02;;;;;;;10.65;9.27;;;;;;;17.03;52.15;99977.34;5003979;28;20065;-92
2022/04/29 11:04:34;;;;;;;10.32;8.82;;;;;;;17.20;51.12;100001.28;5004271;28;20030;-90
2022/04/29 11:07:00;;;;;;;14.55;9.63;;;;;;;17.19;51.31;99997.78;5007703;28;20038;-89
2022/04/29 11:09:27;;;;;;;15.77;9.00;;;;;;;17.29;51.30;99978.56;5003064;28;20049;-89
2022/04/29 11:11:55;;;;;;;11.52;9.30;;;;;;;17.17;51.02;99986.38;5004744;28;20073;-93
2022/04/29 11:14:21;;;;;;;9.80;8.52;;;;;;;17.23;50.82;99984.38;4988220;28;20112;-91
2022/04/29 11:17:16;;;;;;;9.73;8.32;;;;;;;17.32;50.30;99997.00;4990775;28;20113;-93
2022/04/29 11:19:48;;;;;;;8.95;8.05;;;;;;;17.22;50.67;99993.66;4983316;28;20034;-94
2022/04/29 11:25:01;;;;;;;14.50;11.75;;;;;;;17.17;50.98;99970.84;4981921;28;20303;-89
2022/04/29 11:27:30;;;;;;;9.90;8.90;;;;;;;17.24;50.78;99969.66;4953726;28;20038;-90
2022/04/29 11:30:01;;;;;;;10.40;9.30;;;;;;;17.30;50.99;99961.09;4988268;28;20074;-89
2022/04/29 11:32:27;;;;;;;11.48;9.80;;;;;;;17.42;50.40;99976.97;4979481;28;20050;-89
2022/04/29 11:34:54;;;;;;;16.98;10.32;;;;;;;17.23;51.34;99971.59;4980649;28;20156;-88
2022/04/29 11:37:27;;;;;;;11.70;9.20;;;;;;;17.31;50.84;99975.53;4981542;28;20065;-90
2022/04/29 11:39:55;;;;;;;10.20;9.10;;;;;;;17.12;51.11;99948.34;4966547;28;20425;-93
2022/04/29 11:42:20;;;;;;;12.02;9.38;;;;;;;17.13;51.53;99960.88;4984565;28;20081;-93
2022/04/29 11:44:56;;;;;;;12.65;9.48;;;;;;;17.32;50.67;99964.34;4955545;28;20070;-94
2022/04/29 11:47:27;;;;;;;10.30;9.20;;;;;;;17.47;50.66;99965.19;4951751;28;20042;-93
2022/04/29 11:49:53;;;;;;;12.73;11.18;;;;;;;17.39;50.05;99955.81;4967350;28;20031;-92
2022/04/29 11:52:30;;;;;;;13.13;9.90;;;;;;;17.29;50.37;99945.91;4984916;28;20049;-94
2022/04/29 11:55:17;;;;;;;9.40;8.38;;;;;;;17.42;50.15;99943.50;5008773;28;20030;-93
2022/04/29 11:57:47;;;;;;;15.73;10.25;;;;;;;17.48;50.80;99947.75;5006019;28;20034;-91
2022/04/29 12:01:04;;;;;;;12.00;9.45;;;;;;;17.42;49.74;99940.78;5006209;28;20030;-94
2022/04/29 12:03:32;;;;;;;12.93;9.02;;;;;;;17.38;50.08;99956.91;4979445;28;20047;-91
2022/04/29 12:06:17;;;;;;;;;;;;;;;;;;;;;
2022/04/29 12:08:52;;;;;;;10.52;8.65;;;;;;;17.33;49.80;99938.75;4970703;28;20049;-92
2022/04/29 12:11:30;;;;;;;10.45;8.68;;;;;;;17.28;50.32;99946.97;4940284;28;20039;-93